Nautilus Survey — LIXR — position and weather

sailwx.info

Track history (hours):
 
Tides and Currents Weather Stations Pressure Air Temp Water Temp Dewpoint Dewpoint Depression Visibility Wind Speed Wind Dir Waves Ship Positions

Nautilus Survey

Last reported at 2015-Jan-11 17:25 UTC. Time now 2015-Jan-28 16:17 UTC.
Position N 67°26' E 014°09'.
Warning: this ship's position is 16 days out of date.

Length 22 m; draft 2 m.

Type: Dredging. MMSI: 259464000.

Date/timePositionNaut miles runAvg speedWind from/ knotsBaromVisibWave heightAir tempDewpointWater temp
2015-Jan-11 17:25N 67°26' E 014°09'9 9.8
2015-Jan-11 16:32N 67°18' E 014°07'9 9.6
2015-Jan-11 15:33N 67°09' E 014°02'10 9.4
2015-Jan-11 14:32N 67°02' E 013°45'30 9.0
2015-Jan-11 11:13N 66°36' E 013°05'3 1.0
2015-Jan-11 08:27N 66°35' E 012°58'8 8.9
2015-Jan-11 07:32N 66°28' E 012°49'4 4.3
2015-Jan-11 06:33N 66°24' E 012°50'0 0.0
2015-Jan-11 05:33N 66°24' E 012°50'0 0.0
2015-Jan-11 04:33N 66°24' E 012°50'0 0.0
2015-Jan-11 03:33N 66°24' E 012°50'0 0.0
2015-Jan-11 02:33N 66°24' E 012°50'0 0.0
2015-Jan-11 01:33N 66°24' E 012°50'0 0.0
2015-Jan-11 00:33N 66°24' E 012°50'0 0.0
2015-Jan-10 23:33N 66°24' E 012°50'0 0.0
2015-Jan-10 22:33N 66°24' E 012°50'0 0.0
2015-Jan-10 21:33N 66°24' E 012°50'0 0.0
2015-Jan-10 20:33N 66°24' E 012°50'0 0.0
2015-Jan-10 19:33N 66°24' E 012°50'0 0.0
2015-Jan-10 18:33N 66°24' E 012°50'0 0.0
2015-Jan-10 17:33N 66°24' E 012°50'0 0.0
2015-Jan-10 16:33N 66°24' E 012°50'5 5.2
2015-Jan-10 15:33N 66°19' E 012°45'8 7.7
2015-Jan-10 14:29N 66°11' E 012°40'7 1.0
2015-Jan-10 07:23N 66°18' E 012°39'7 8.2
2015-Jan-10 06:33N 66°24' E 012°48'1 0.6
2015-Jan-10 05:33N 66°24' E 012°50'0 0.0
2015-Jan-10 04:33N 66°24' E 012°50'0 0.0
2015-Jan-10 03:33N 66°24' E 012°50'0 0.0
2015-Jan-10 02:33N 66°24' E 012°50'0 0.0
2015-Jan-10 01:33N 66°24' E 012°50'0 0.0
2015-Jan-10 00:33N 66°24' E 012°50'0 0.0
2015-Jan-09 23:33N 66°24' E 012°50'0 0.0
2015-Jan-09 22:33N 66°24' E 012°50'0 0.0
2015-Jan-09 21:33N 66°24' E 012°50'0 0.0
2015-Jan-09 20:33N 66°24' E 012°50'4 3.8
2015-Jan-09 19:28N 66°28' E 012°53'8 8.2
2015-Jan-09 18:28N 66°35' E 012°58'3 1.4
2015-Jan-09 16:32N 66°36' E 013°05'6 1.6
2015-Jan-09 12:30N 66°30' E 012°59'9 9.9
2015-Jan-09 11:32N 66°21' E 012°58'1 0.0
2015-Jan-08 15:28N 66°22' E 012°58'4 4.4
2015-Jan-08 14:33N 66°26' E 012°59'10 4.1
2015-Jan-08 12:12N 66°35' E 012°58'5 1.9
2015-Jan-08 09:26N 66°30' E 012°59'910.0
2015-Jan-08 08:32N 66°21' E 012°58'  
2015-Jan-05 15:28N 66°21' E 012°58'  
2015-Jan-01 19:24N 66°36' E 012°59'1010.2
2015-Jan-01 18:26N 66°26' E 012°59'  
Track history (hours):
 
Tides and Currents Weather Stations Pressure Air Temp Water Temp Dewpoint Dewpoint Depression Visibility Wind Speed Wind Dir Waves Ship Positions

Nautilus Survey

Last reported at 2015-Jan-11 17:25 UTC. Time now 2015-Jan-28 16:17 UTC.
Position N 67°26' E 014°09'.
Warning: this ship's position is 16 days out of date.

Length 22 m; draft 2 m.

Type: Dredging. MMSI: 259464000.

Date/timePositionNaut miles runAvg speedWind from/ knotsBaromVisibWave heightAir tempDewpointWater temp
2015-Jan-11 17:25N 67°26' E 014°09'9 9.8
2015-Jan-11 16:32N 67°18' E 014°07'9 9.6
2015-Jan-11 15:33N 67°09' E 014°02'10 9.4
2015-Jan-11 14:32N 67°02' E 013°45'30 9.0
2015-Jan-11 11:13N 66°36' E 013°05'3 1.0
2015-Jan-11 08:27N 66°35' E 012°58'8 8.9
2015-Jan-11 07:32N 66°28' E 012°49'4 4.3
2015-Jan-11 06:33N 66°24' E 012°50'0 0.0
2015-Jan-11 05:33N 66°24' E 012°50'0 0.0
2015-Jan-11 04:33N 66°24' E 012°50'0 0.0
2015-Jan-11 03:33N 66°24' E 012°50'0 0.0
2015-Jan-11 02:33N 66°24' E 012°50'0 0.0
2015-Jan-11 01:33N 66°24' E 012°50'0 0.0
2015-Jan-11 00:33N 66°24' E 012°50'0 0.0
2015-Jan-10 23:33N 66°24' E 012°50'0 0.0
2015-Jan-10 22:33N 66°24' E 012°50'0 0.0
2015-Jan-10 21:33N 66°24' E 012°50'0 0.0
2015-Jan-10 20:33N 66°24' E 012°50'0 0.0
2015-Jan-10 19:33N 66°24' E 012°50'0 0.0
2015-Jan-10 18:33N 66°24' E 012°50'0 0.0
2015-Jan-10 17:33N 66°24' E 012°50'0 0.0
2015-Jan-10 16:33N 66°24' E 012°50'5 5.2
2015-Jan-10 15:33N 66°19' E 012°45'8 7.7
2015-Jan-10 14:29N 66°11' E 012°40'7 1.0
2015-Jan-10 07:23N 66°18' E 012°39'7 8.2
2015-Jan-10 06:33N 66°24' E 012°48'1 0.6
2015-Jan-10 05:33N 66°24' E 012°50'0 0.0
2015-Jan-10 04:33N 66°24' E 012°50'0 0.0
2015-Jan-10 03:33N 66°24' E 012°50'0 0.0
2015-Jan-10 02:33N 66°24' E 012°50'0 0.0
2015-Jan-10 01:33N 66°24' E 012°50'0 0.0
2015-Jan-10 00:33N 66°24' E 012°50'0 0.0
2015-Jan-09 23:33N 66°24' E 012°50'0 0.0
2015-Jan-09 22:33N 66°24' E 012°50'0 0.0
2015-Jan-09 21:33N 66°24' E 012°50'0 0.0
2015-Jan-09 20:33N 66°24' E 012°50'4 3.8
2015-Jan-09 19:28N 66°28' E 012°53'8 8.2
2015-Jan-09 18:28N 66°35' E 012°58'3 1.4
2015-Jan-09 16:32N 66°36' E 013°05'6 1.6
2015-Jan-09 12:30N 66°30' E 012°59'9 9.9
2015-Jan-09 11:32N 66°21' E 012°58'1 0.0
2015-Jan-08 15:28N 66°22' E 012°58'4 4.4
2015-Jan-08 14:33N 66°26' E 012°59'10 4.1
2015-Jan-08 12:12N 66°35' E 012°58'5 1.9
2015-Jan-08 09:26N 66°30' E 012°59'910.0
2015-Jan-08 08:32N 66°21' E 012°58'  
2015-Jan-05 15:28N 66°21' E 012°58'  
2015-Jan-01 19:24N 66°36' E 012°59'1010.2
2015-Jan-01 18:26N 66°26' E 012°59'  

Dump ship's entire track history